Time;durP1;ratioP1;P1;durP2;ratioP2;P2;SDS_P1;SDS_P2;PMS_P1;PMS_P2;Temp;Humidity;BMP_temperature;BMP_pressure;BME280_temperature;BME280_humidity;BME280_pressure;Samples;Min_cycle;Max_cycle;Signal;HPM_P1;HPM_P2
2021/06/19 00:00:31;;;;;;;6.95;6.25;;;19.10;99.90;;;;;;5072758;28;20024;-86
2021/06/19 00:02:58;;;;;;;6.93;6.25;;;19.10;99.90;;;;;;5072982;28;20029;-85
2021/06/19 00:05:24;;;;;;;7.50;5.53;;;19.10;99.90;;;;;;5073107;28;20375;-86
2021/06/19 00:07:50;;;;;;;8.05;6.05;;;19.10;99.90;;;;;;5073002;28;20082;-85
2021/06/19 00:10:17;;;;;;;7.72;6.22;;;19.10;99.90;;;;;;5072819;28;20379;-87
2021/06/19 00:12:45;;;;;;;6.05;5.53;;;19.00;99.90;;;;;;5072898;28;20017;-84
2021/06/19 00:15:14;;;;;;;6.70;5.70;;;19.00;99.90;;;;;;5073053;28;20020;-86
2021/06/19 00:17:40;;;;;;;6.07;5.40;;;18.90;99.90;;;;;;5072779;28;20037;-85
2021/06/19 00:20:13;;;;;;;7.05;5.80;;;18.90;99.90;;;;;;5072666;28;20025;-86
2021/06/19 00:22:38;;;;;;;8.00;5.93;;;18.90;99.90;;;;;;5072745;28;20024;-84
2021/06/19 00:25:06;;;;;;;7.13;5.68;;;18.80;99.90;;;;;;5073000;28;20032;-85
2021/06/19 00:27:31;;;;;;;6.45;5.82;;;18.80;99.90;;;;;;5072985;28;20111;-85
2021/06/19 00:29:57;;;;;;;9.30;6.47;;;18.70;99.90;;;;;;5074049;28;20412;-85
2021/06/19 00:32:23;;;;;;;7.35;6.63;;;18.70;99.90;;;;;;5073139;28;20024;-85
2021/06/19 00:34:49;;;;;;;9.93;7.15;;;18.70;99.90;;;;;;5072668;28;20380;-86
2021/06/19 00:37:14;;;;;;;8.30;7.18;;;18.70;99.90;;;;;;5073656;28;20051;-84
2021/06/19 00:39:40;;;;;;;8.63;7.63;;;18.70;99.90;;;;;;5072733;28;20040;-85
2021/06/19 00:42:06;;;;;;;8.60;7.80;;;18.70;99.90;;;;;;5072611;28;20040;-87
2021/06/19 00:44:32;;;;;;;7.82;7.05;;;18.60;99.90;;;;;;5072665;28;20116;-86
2021/06/19 00:46:58;;;;;;;7.75;7.00;;;18.60;99.90;;;;;;5075112;28;20056;-85
2021/06/19 00:49:25;;;;;;;9.18;7.50;;;18.60;99.90;;;;;;5076256;28;20386;-86
2021/06/19 00:51:51;;;;;;;8.40;7.57;;;18.60;99.90;;;;;;5076248;28;20067;-85
2021/06/19 00:54:18;;;;;;;8.15;7.40;;;18.60;99.90;;;;;;5076189;28;20029;-86
2021/06/19 00:56:45;;;;;;;8.63;7.63;;;18.60;99.90;;;;;;5076080;28;20505;-86
2021/06/19 00:59:11;;;;;;;9.02;7.18;;;18.60;99.90;;;;;;5076146;28;20035;-87
2021/06/19 01:01:38;;;;;;;9.77;7.55;;;18.60;99.90;;;;;;5075753;28;20033;-87
2021/06/19 01:04:06;;;;;;;8.27;7.47;;;18.60;99.90;;;;;;5076021;28;20027;-88
2021/06/19 01:06:33;;;;;;;8.90;8.00;;;18.60;99.90;;;;;;5075797;28;20024;-85
2021/06/19 01:08:59;;;;;;;8.50;7.63;;;18.50;99.90;;;;;;5075877;28;20026;-88
2021/06/19 01:11:26;;;;;;;12.32;7.53;;;18.50;99.90;;;;;;5075481;28;20539;-87
2021/06/19 01:13:53;;;;;;;10.60;8.23;;;18.50;99.90;;;;;;5076056;28;20028;-88
2021/06/19 01:16:19;;;;;;;10.48;8.18;;;18.40;99.90;;;;;;5075785;28;20372;-87
2021/06/19 01:18:46;;;;;;;12.77;8.82;;;18.40;99.90;;;;;;5075765;28;20025;-88
2021/06/19 01:21:14;;;;;;;9.07;7.85;;;18.50;99.90;;;;;;5075758;28;20048;-87
2021/06/19 01:23:40;;;;;;;8.43;7.63;;;18.50;99.90;;;;;;5075802;28;20026;-88
2021/06/19 01:26:06;;;;;;;8.93;7.63;;;18.50;99.90;;;;;;5075774;28;20028;-88
2021/06/19 01:28:31;;;;;;;8.88;7.70;;;18.40;99.90;;;;;;5075553;28;20056;-89
2021/06/19 01:30:57;;;;;;;8.60;7.80;;;18.40;99.90;;;;;;5075596;28;20115;-88
2021/06/19 01:33:23;;;;;;;8.60;7.75;;;18.40;99.90;;;;;;5075622;28;20021;-88
2021/06/19 01:35:48;;;;;;;8.35;7.53;;;18.40;99.90;;;;;;5075705;28;20027;-86
2021/06/19 01:38:14;;;;;;;9.75;8.18;;;18.30;99.90;;;;;;5077514;28;20049;-86
2021/06/19 01:40:40;;;;;;;9.02;8.13;;;18.30;99.90;;;;;;5075758;28;20064;-88
2021/06/19 01:43:05;;;;;;;9.07;8.18;;;18.30;99.90;;;;;;5076123;28;20062;-90
2021/06/19 01:45:33;;;;;;;8.68;7.80;;;18.30;99.90;;;;;;5075741;28;20032;-87
2021/06/19 01:48:01;;;;;;;9.10;8.25;;;18.20;99.90;;;;;;5075456;28;20024;-86
2021/06/19 01:50:26;;;;;;;9.32;8.43;;;18.10;99.90;;;;;;5075199;28;20510;-88
2021/06/19 01:52:53;;;;;;;10.65;8.38;;;18.10;99.90;;;;;;5075173;28;20059;-87
2021/06/19 01:55:19;;;;;;;10.75;8.00;;;18.00;99.90;;;;;;5074941;28;20361;-86
2021/06/19 01:57:46;;;;;;;12.65;8.43;;;18.00;99.90;;;;;;5074303;28;20467;-84
2021/06/19 02:00:20;;;;;;;9.05;8.23;;;18.00;99.90;;;;;;5074968;28;20119;-86
2021/06/19 02:02:46;;;;;;;9.27;8.45;;;18.00;99.90;;;;;;5075246;28;20032;-88
2021/06/19 02:05:14;;;;;;;10.65;8.00;;;18.00;99.90;;;;;;5075469;28;20052;-88
2021/06/19 02:07:50;;;;;;;11.20;8.13;;;18.00;99.90;;;;;;5074938;28;20031;-86
2021/06/19 02:10:17;;;;;;;11.10;8.38;;;18.00;99.90;;;;;;5074598;28;20026;-86
2021/06/19 02:12:44;;;;;;;10.30;8.45;;;18.00;99.90;;;;;;5074881;28;20032;-85
2021/06/19 02:15:10;;;;;;;10.57;8.95;;;17.90;99.90;;;;;;5074696;28;20066;-86
2021/06/19 02:17:36;;;;;;;10.55;8.68;;;18.00;99.90;;;;;;5074604;28;20056;-86
2021/06/19 02:20:06;;;;;;;9.48;8.02;;;18.00;99.90;;;;;;5074598;28;20546;-89
2021/06/19 02:22:32;;;;;;;10.48;8.35;;;18.00;99.90;;;;;;5074309;28;20032;-87
2021/06/19 02:24:58;;;;;;;10.50;8.35;;;18.00;99.90;;;;;;5074561;28;20078;-85
2021/06/19 02:27:23;;;;;;;11.75;6.88;;;18.00;99.90;;;;;;5074482;28;20020;-86
2021/06/19 02:29:50;;;;;;;7.10;6.40;;;17.90;99.90;;;;;;5074370;28;20017;-87
2021/06/19 02:32:16;;;;;;;8.13;7.38;;;17.90;99.90;;;;;;5074149;28;20028;-88
2021/06/19 02:34:41;;;;;;;8.80;7.72;;;17.80;99.90;;;;;;5074315;28;20486;-85
2021/06/19 02:37:07;;;;;;;10.05;7.55;;;17.80;99.90;;;;;;5074122;28;20036;-86
2021/06/19 02:39:33;;;;;;;10.15;8.23;;;17.70;99.90;;;;;;5074193;28;20031;-84
2021/06/19 02:41:59;;;;;;;11.07;8.63;;;17.90;99.90;;;;;;5073842;28;20498;-86
2021/06/19 02:44:24;;;;;;;10.13;8.73;;;17.90;99.90;;;;;;5074273;28;20070;-88
2021/06/19 02:46:50;;;;;;;9.63;8.73;;;17.90;99.90;;;;;;5073841;28;20467;-88
2021/06/19 02:49:16;;;;;;;11.60;8.70;;;17.80;99.90;;;;;;5074067;28;20464;-87
2021/06/19 02:51:41;;;;;;;9.32;8.20;;;17.70;99.90;;;;;;5073924;28;20090;-89
2021/06/19 02:54:07;;;;;;;11.43;8.25;;;17.80;99.90;;;;;;5073994;28;20020;-86
2021/06/19 02:56:33;;;;;;;10.13;9.10;;;17.70;99.90;;;;;;5074027;28;20115;-87
2021/06/19 02:58:59;;;;;;;9.65;8.65;;;17.70;99.90;;;;;;5074122;28;20021;-85
2021/06/19 03:01:24;;;;;;;13.82;8.80;;;17.70;99.90;;;;;;5073829;28;20119;-87
2021/06/19 03:03:50;;;;;;;9.75;8.68;;;17.60;99.90;;;;;;5073936;28;20063;-88
2021/06/19 03:06:16;;;;;;;9.98;8.73;;;17.60;99.90;;;;;;5073846;28;20352;-86
2021/06/19 03:08:42;;;;;;;10.43;8.85;;;17.60;99.90;;;;;;5073619;28;20032;-85
2021/06/19 03:11:07;;;;;;;10.15;8.90;;;17.60;99.90;;;;;;5073588;28;20495;-88
2021/06/19 03:13:33;;;;;;;14.18;9.13;;;17.60;99.90;;;;;;5073607;28;20043;-87
2021/06/19 03:15:59;;;;;;;9.30;8.40;;;17.60;99.90;;;;;;5073559;28;20498;-88
2021/06/19 03:18:24;;;;;;;10.73;9.32;;;17.60;99.90;;;;;;5073637;28;20515;-88
2021/06/19 03:20:50;;;;;;;10.80;9.27;;;17.60;99.90;;;;;;5073245;28;20055;-86
2021/06/19 03:23:16;;;;;;;13.00;9.13;;;17.60;99.90;;;;;;5073492;28;20135;-88
2021/06/19 03:25:43;;;;;;;9.65;8.65;;;17.60;99.90;;;;;;5073286;28;20090;-88
2021/06/19 03:28:11;;;;;;;9.60;8.65;;;17.70;99.90;;;;;;5073375;28;20120;-87
2021/06/19 03:30:40;;;;;;;10.10;8.88;;;17.70;99.90;;;;;;5073341;28;20029;-86
2021/06/19 03:33:06;;;;;;;12.05;8.82;;;17.80;99.90;;;;;;5073260;28;20055;-87
2021/06/19 03:35:32;;;;;;;11.05;8.85;;;17.70;99.90;;;;;;5073381;28;20036;-87
2021/06/19 03:37:58;;;;;;;10.90;8.80;;;17.70;99.90;;;;;;5073095;28;20051;-87
2021/06/19 03:40:26;;;;;;;10.18;8.30;;;17.70;99.90;;;;;;5073121;28;20119;-88
2021/06/19 03:42:53;;;;;;;10.52;8.90;;;17.60;99.90;;;;;;5073079;28;20442;-90
2021/06/19 03:45:20;;;;;;;10.13;9.13;;;17.60;99.90;;;;;;5073265;28;20066;-88
2021/06/19 03:47:47;;;;;;;10.45;9.15;;;17.60;99.90;;;;;;5073320;28;20028;-90
2021/06/19 03:50:19;;;;;;;10.63;9.30;;;17.60;99.90;;;;;;5073145;28;20115;-87
2021/06/19 03:52:45;;;;;;;8.20;7.40;;;17.60;99.90;;;;;;5074224;28;20369;-83
2021/06/19 03:55:12;;;;;;;9.02;7.60;;;18.80;99.90;;;;;;5073201;28;20031;-80
2021/06/19 03:57:38;;;;;;;9.68;8.18;;;19.80;99.90;;;;;;5072937;28;20403;-79
2021/06/19 04:00:12;;;;;;;9.23;7.47;;;19.80;99.90;;;;;;5074685;28;20020;-79
2021/06/19 04:02:39;;;;;;;13.43;7.78;;;20.00;99.90;;;;;;5072402;28;20459;-84
2021/06/19 04:05:06;;;;;;;10.73;7.20;;;20.30;99.90;;;;;;5075348;28;20108;-78
2021/06/19 04:07:32;;;;;;;8.18;6.63;;;20.40;99.90;;;;;;5073413;28;20024;-79
2021/06/19 04:09:58;;;;;;;8.07;7.20;;;20.60;99.90;;;;;;5072055;28;20180;-78
2021/06/19 04:12:25;;;;;;;9.45;7.28;;;20.80;99.90;;;;;;5073584;28;20463;-78
2021/06/19 04:14:51;;;;;;;8.80;6.07;;;20.30;99.90;;;;;;5072301;28;20048;-79
2021/06/19 04:17:17;;;;;;;9.18;7.32;;;20.80;99.90;;;;;;5072055;28;20695;-78
2021/06/19 04:19:44;;;;;;;7.35;6.65;;;20.90;99.90;;;;;;5072124;28;20356;-78
2021/06/19 04:22:12;;;;;;;10.43;7.30;;;20.60;99.90;;;;;;5075147;28;20139;-81
2021/06/19 04:24:38;;;;;;;10.40;6.85;;;20.60;99.90;;;;;;5076021;28;20021;-78
2021/06/19 04:27:10;;;;;;;8.80;7.90;;;20.40;99.90;;;;;;5077414;28;20099;-81
2021/06/19 04:29:38;;;;;;;10.38;7.53;;;20.20;99.90;;;;;;5075829;28;20090;-78
2021/06/19 04:32:04;;;;;;;7.88;7.00;;;20.10;99.90;;;;;;5075354;28;20028;-79
2021/06/19 04:34:30;;;;;;;7.85;6.90;;;20.70;99.90;;;;;;5075830;28;20025;-81
2021/06/19 04:36:56;;;;;;;8.77;7.32;;;20.70;99.90;;;;;;5075274;28;20147;-78
2021/06/19 04:39:22;;;;;;;7.75;6.95;;;20.30;99.90;;;;;;5075527;28;20474;-80
2021/06/19 04:41:55;;;;;;;8.93;7.57;;;20.40;99.90;;;;;;5074886;28;20032;-81
2021/06/19 04:44:43;;;;;;;10.35;8.38;;;20.50;99.90;;;;;;5075609;28;20033;-80
2021/06/19 04:47:08;;;;;;;9.75;8.13;;;20.30;99.90;;;;;;5076684;28;20020;-77
2021/06/19 04:49:33;;;;;;;13.15;8.52;;;20.10;99.90;;;;;;5075463;28;20047;-77
2021/06/19 04:51:59;;;;;;;9.88;8.07;;;20.20;99.90;;;;;;5075005;28;20460;-79
2021/06/19 04:54:25;;;;;;;11.18;9.38;;;20.20;99.90;;;;;;5075074;28;20422;-78
2021/06/19 04:56:51;;;;;;;9.48;8.60;;;20.20;99.90;;;;;;5076605;28;20028;-77
2021/06/19 04:59:17;;;;;;;10.45;9.45;;;20.60;99.90;;;;;;5075112;28;20371;-77
2021/06/19 05:01:43;;;;;;;12.93;11.27;;;20.90;99.90;;;;;;5074812;28;20032;-81
2021/06/19 05:04:08;;;;;;;11.75;9.00;;;21.00;99.90;;;;;;5075203;28;20170;-79
2021/06/19 05:06:35;;;;;;;9.90;8.77;;;20.80;99.90;;;;;;5075152;28;20028;-79
2021/06/19 05:09:03;;;;;;;12.27;8.77;;;20.90;99.90;;;;;;5075060;28;20081;-77
2021/06/19 05:11:28;;;;;;;10.05;8.05;;;21.20;99.90;;;;;;5075339;28;20020;-81
2021/06/19 05:13:54;;;;;;;11.20;8.43;;;21.20;99.90;;;;;;5075228;28;20459;-77
2021/06/19 05:16:19;;;;;;;8.98;8.07;;;21.40;99.90;;;;;;5076026;28;20089;-79
2021/06/19 05:18:45;;;;;;;9.27;8.38;;;21.50;99.90;;;;;;5075340;28;20070;-79
2021/06/19 05:21:11;;;;;;;10.10;8.05;;;21.50;99.90;;;;;;5076293;28;20032;-80
2021/06/19 05:23:36;;;;;;;9.15;8.27;;;21.60;99.90;;;;;;5074875;28;20025;-79
2021/06/19 05:26:02;;;;;;;9.48;7.75;;;21.90;99.90;;;;;;5075140;28;20028;-80
2021/06/19 05:28:28;;;;;;;8.07;7.07;;;22.10;99.90;;;;;;5075410;28;20529;-77
2021/06/19 05:30:54;;;;;;;10.35;7.78;;;22.40;99.90;;;;;;5075100;28;20031;-81
2021/06/19 05:33:19;;;;;;;11.32;8.50;;;22.30;99.90;;;;;;5073665;28;20028;-84
2021/06/19 05:35:45;;;;;;;10.10;8.13;;;22.40;99.90;;;;;;5076340;28;20024;-80
2021/06/19 05:38:11;;;;;;;8.55;7.72;;;22.40;99.90;;;;;;5075281;28;20399;-80
2021/06/19 05:40:36;;;;;;;8.70;6.97;;;22.50;99.90;;;;;;5075089;28;20040;-88
2021/06/19 05:43:02;;;;;;;8.60;7.47;;;22.70;99.90;;;;;;5074740;28;20028;-86
2021/06/19 05:45:27;;;;;;;9.68;7.50;;;22.80;99.90;;;;;;5075301;28;20032;-87
2021/06/19 05:47:53;;;;;;;7.68;6.88;;;22.90;99.90;;;;;;5075121;28;20027;-88
2021/06/19 05:50:19;;;;;;;7.88;7.07;;;23.00;99.90;;;;;;5075254;28;20051;-86
2021/06/19 05:52:44;;;;;;;10.32;7.13;;;23.00;99.90;;;;;;5075864;28;20029;-85
2021/06/19 05:55:11;;;;;;;7.20;6.25;;;23.10;99.90;;;;;;5075228;28;20033;-84
2021/06/19 05:57:37;;;;;;;11.95;7.35;;;23.30;99.90;;;;;;5074982;28;20142;-87
2021/06/19 06:00:07;;;;;;;7.55;6.78;;;23.50;99.90;;;;;;5074890;28;20025;-84
2021/06/19 06:02:33;;;;;;;9.93;7.55;;;23.70;99.90;;;;;;5075365;28;20040;-87
2021/06/19 06:04:59;;;;;;;8.88;7.95;;;23.80;99.80;;;;;;5074835;28;20017;-84
2021/06/19 06:07:25;;;;;;;7.90;6.43;;;23.90;99.80;;;;;;5075230;28;20035;-83
2021/06/19 06:09:50;;;;;;;7.60;6.80;;;24.10;99.30;;;;;;5075163;28;20472;-83
2021/06/19 06:12:16;;;;;;;7.78;5.97;;;24.20;98.50;;;;;;5075253;28;20021;-83
2021/06/19 06:14:42;;;;;;;10.43;5.57;;;24.40;98.60;;;;;;5074992;28;20132;-84
2021/06/19 06:17:07;;;;;;;8.32;5.65;;;24.50;98.00;;;;;;5074913;28;20029;-84
2021/06/19 06:19:33;;;;;;;6.43;5.68;;;24.70;98.30;;;;;;5075194;28;20491;-86
2021/06/19 06:21:59;;;;;;;6.18;5.30;;;25.00;98.20;;;;;;5075465;28;20028;-87
2021/06/19 06:24:25;;;;;;;7.55;5.25;;;25.10;97.30;;;;;;5075055;28;20025;-75
2021/06/19 06:26:51;;;;;;;5.65;4.65;;;25.20;96.40;;;;;;5074360;28;20027;-80
2021/06/19 06:29:16;;;;;;;5.47;4.88;;;25.20;96.30;;;;;;5074470;28;20016;-78
2021/06/19 06:31:42;;;;;;;7.25;4.80;;;25.30;96.80;;;;;;5074623;28;20751;-79
2021/06/19 06:34:08;;;;;;;5.20;4.60;;;25.60;96.50;;;;;;5075011;28;20017;-78
2021/06/19 06:36:33;;;;;;;8.45;3.88;;;25.80;95.40;;;;;;5074812;28;20035;-79
2021/06/19 06:39:03;;;;;;;5.97;4.47;;;26.00;94.30;;;;;;5075164;28;20020;-78
2021/06/19 06:41:28;;;;;;;7.53;4.65;;;26.00;94.90;;;;;;5073768;28;20040;-76
2021/06/19 06:43:54;;;;;;;7.97;4.38;;;26.00;94.50;;;;;;5075211;28;20017;-76
2021/06/19 06:46:20;;;;;;;7.28;4.75;;;26.20;94.30;;;;;;5074580;28;20436;-78
2021/06/19 06:48:45;;;;;;;8.23;4.63;;;26.40;93.70;;;;;;5074388;28;20066;-77
2021/06/19 06:51:12;;;;;;;7.15;4.63;;;26.60;92.80;;;;;;5073779;28;20028;-78
2021/06/19 06:53:37;;;;;;;6.95;4.65;;;26.80;92.70;;;;;;5077337;28;20020;-88
2021/06/19 06:56:03;;;;;;;10.00;4.45;;;26.90;93.50;;;;;;5077198;28;20024;-77
2021/06/19 06:58:29;;;;;;;6.45;4.68;;;26.90;93.70;;;;;;5075854;28;20031;-89
2021/06/19 07:00:54;;;;;;;5.38;4.82;;;27.00;94.00;;;;;;5075305;28;20028;-77
2021/06/19 07:03:20;;;;;;;6.35;4.03;;;27.00;93.60;;;;;;5073826;28;20029;-86
2021/06/19 07:05:46;;;;;;;5.53;4.03;;;27.20;91.90;;;;;;5073628;28;20036;-78
2021/06/19 07:08:11;;;;;;;7.32;4.30;;;27.20;90.40;;;;;;5073498;28;20388;-85
2021/06/19 07:10:37;;;;;;;8.60;4.22;;;27.20;92.60;;;;;;5072925;28;20468;-78
2021/06/19 07:13:03;;;;;;;5.63;3.92;;;27.30;92.30;;;;;;5073330;28;20028;-76
2021/06/19 07:15:28;;;;;;;14.27;4.65;;;27.30;91.70;;;;;;5073230;28;20028;-77
2021/06/19 07:17:54;;;;;;;6.65;4.25;;;27.50;92.10;;;;;;5073164;28;20028;-77
2021/06/19 07:20:20;;;;;;;6.40;4.68;;;27.60;91.50;;;;;;5072752;28;20024;-85
2021/06/19 07:22:47;;;;;;;8.15;4.60;;;27.70;91.50;;;;;;5054260;28;20052;-77
2021/06/19 07:25:14;;;;;;;4.97;4.40;;;27.80;92.10;;;;;;5071217;28;20048;-77
2021/06/19 07:27:40;;;;;;;5.25;4.68;;;27.90;91.80;;;;;;5072763;28;20024;-78
2021/06/19 07:30:08;;;;;;;5.50;4.43;;;27.90;90.40;;;;;;5072477;28;20836;-85
2021/06/19 07:32:35;;;;;;;5.32;4.30;;;28.10;90.20;;;;;;5072797;28;20479;-77
2021/06/19 07:35:01;;;;;;;6.65;4.70;;;28.30;88.70;;;;;;5072800;28;20027;-81
2021/06/19 07:37:26;;;;;;;7.22;4.35;;;28.40;90.00;;;;;;5072722;28;20050;-86
2021/06/19 07:39:53;;;;;;;6.38;4.20;;;28.50;89.10;;;;;;5072390;28;20029;-85
2021/06/19 07:42:22;;;;;;;7.55;4.28;;;28.60;89.70;;;;;;5072504;28;20033;-83
2021/06/19 07:44:50;;;;;;;6.13;4.20;;;28.60;85.70;;;;;;5072695;28;20020;-85
2021/06/19 07:47:15;;;;;;;5.93;4.35;;;28.50;87.70;;;;;;5072373;28;20013;-77
2021/06/19 07:49:41;;;;;;;4.80;4.30;;;28.70;89.30;;;;;;5072478;28;20173;-76
2021/06/19 07:52:07;;;;;;;7.40;4.68;;;28.60;90.00;;;;;;5072350;28;20028;-75
2021/06/19 07:54:36;;;;;;;6.40;4.40;;;28.90;88.80;;;;;;5072158;28;20024;-77
2021/06/19 07:57:07;;;;;;;5.32;4.82;;;28.90;88.00;;;;;;5071706;28;20111;-77
2021/06/19 07:59:34;;;;;;;7.72;4.97;;;28.90;87.10;;;;;;5072223;28;20028;-79
2021/06/19 08:02:01;;;;;;;5.72;4.78;;;29.10;86.40;;;;;;5072103;28;20064;-86
2021/06/19 08:04:27;;;;;;;10.82;4.70;;;28.80;88.80;;;;;;5072275;28;20027;-76
2021/06/19 08:06:53;;;;;;;5.85;5.22;;;28.80;88.20;;;;;;5072619;28;20029;-76
2021/06/19 08:09:18;;;;;;;6.43;4.80;;;29.00;90.20;;;;;;5072572;28;20021;-76
2021/06/19 08:11:44;;;;;;;5.65;4.90;;;29.30;89.90;;;;;;5072884;28;20027;-80
2021/06/19 08:14:09;;;;;;;5.50;4.93;;;29.50;87.10;;;;;;5072810;28;20035;-87
2021/06/19 08:16:35;;;;;;;6.18;4.82;;;29.50;87.20;;;;;;5072765;28;20027;-79
2021/06/19 08:19:01;;;;;;;6.43;4.90;;;29.70;88.20;;;;;;5072809;28;20024;-81
2021/06/19 08:21:27;;;;;;;6.50;4.88;;;29.80;87.80;;;;;;5072546;28;20033;-79
2021/06/19 08:23:53;;;;;;;12.55;5.50;;;29.60;86.70;;;;;;5074797;28;20039;-82
2021/06/19 08:26:18;;;;;;;7.47;5.40;;;29.70;89.10;;;;;;5072780;28;20174;-78
2021/06/19 08:28:44;;;;;;;7.22;5.07;;;29.70;85.70;;;;;;5072301;28;20017;-84
2021/06/19 08:31:09;;;;;;;8.30;5.78;;;29.70;86.90;;;;;;5072179;28;20032;-83
2021/06/19 08:33:35;;;;;;;6.95;5.10;;;29.80;85.90;;;;;;5072421;28;20017;-80
2021/06/19 08:36:01;;;;;;;5.32;4.80;;;29.90;84.40;;;;;;5072383;28;20021;-80
2021/06/19 08:38:26;;;;;;;7.18;5.55;;;30.00;87.70;;;;;;5072417;28;20055;-82
2021/06/19 08:40:53;;;;;;;13.73;5.20;;;30.10;85.10;;;;;;5071960;28;20029;-80
2021/06/19 08:43:19;;;;;;;5.68;4.85;;;30.20;83.10;;;;;;5072371;28;20078;-79
2021/06/19 08:45:48;;;;;;;6.97;4.93;;;30.30;82.30;;;;;;5072518;28;20029;-82
2021/06/19 08:48:16;;;;;;;7.70;4.82;;;30.30;81.10;;;;;;5085248;28;20544;-80
2021/06/19 08:50:43;;;;;;;6.72;4.32;;;30.50;80.70;;;;;;5075984;28;20029;-81
2021/06/19 08:53:08;;;;;;;7.82;4.70;;;30.60;79.80;;;;;;5071710;28;20032;-82
2021/06/19 08:55:34;;;;;;;5.10;4.65;;;30.70;79.70;;;;;;5074469;28;20043;-78
2021/06/19 08:58:00;;;;;;;6.53;4.50;;;30.80;80.40;;;;;;5077100;28;20025;-76
2021/06/19 09:00:25;;;;;;;7.97;4.70;;;30.90;77.50;;;;;;5079370;28;20024;-77
2021/06/19 09:02:52;;;;;;;5.60;4.70;;;31.00;79.20;;;;;;5073698;28;20162;-80
2021/06/19 09:05:26;;;;;;;7.25;4.82;;;30.80;77.70;;;;;;5071858;28;20497;-79
2021/06/19 09:07:53;;;;;;;6.57;4.55;;;30.80;77.00;;;;;;5073983;28;20499;-79
2021/06/19 09:10:28;;;;;;;5.00;4.50;;;30.90;77.60;;;;;;5075272;28;20029;-79
2021/06/19 09:13:04;;;;;;;9.55;4.65;;;31.00;76.30;;;;;;5074916;28;20064;-80
2021/06/19 09:15:34;;;;;;;7.32;4.50;;;31.00;76.40;;;;;;5074044;28;20020;-81
2021/06/19 09:18:20;;;;;;;9.73;4.78;;;31.00;74.50;;;;;;5073874;28;20376;-80
2021/06/19 09:20:49;;;;;;;5.13;4.47;;;31.00;74.20;;;;;;5066617;28;20043;-76
2021/06/19 09:23:33;;;;;;;5.22;4.72;;;31.10;72.60;;;;;;5075937;28;20106;-78
2021/06/19 09:26:12;;;;;;;4.90;4.38;;;31.10;73.40;;;;;;5075190;28;20009;-78
2021/06/19 09:28:57;;;;;;;6.18;4.88;;;31.20;75.20;;;;;;5075529;28;20032;-82
2021/06/19 09:31:30;;;;;;;7.33;4.67;;;31.30;74.10;;;;;;5073902;28;20123;-83
2021/06/19 09:34:11;;;;;;;11.73;4.25;;;31.20;72.80;;;;;;5074393;28;20367;-80
2021/06/19 09:36:38;;;;;;;8.23;4.13;;;31.20;72.90;;;;;;5076039;28;20036;-78
2021/06/19 09:39:05;;;;;;;5.63;4.70;;;31.40;72.20;;;;;;5074097;28;20024;-77
2021/06/19 09:41:42;;;;;;;6.88;4.60;;;31.40;70.90;;;;;;5076236;28;20083;-82
2021/06/19 09:44:08;;;;;;;4.90;4.40;;;31.50;69.90;;;;;;5075305;28;20025;-83
2021/06/19 09:46:34;;;;;;;5.72;4.30;;;31.60;69.30;;;;;;5075321;28;20028;-83
2021/06/19 09:49:12;;;;;;;6.35;4.15;;;31.60;70.50;;;;;;5075092;28;20080;-81
2021/06/19 09:51:48;;;;;;;4.70;4.30;;;31.80;69.50;;;;;;5075154;28;20024;-83
2021/06/19 09:54:14;;;;;;;5.22;4.07;;;31.70;66.90;;;;;;5074848;28;20360;-83
2021/06/19 09:56:45;;;;;;;4.35;3.95;;;31.70;66.10;;;;;;5074787;28;20029;-82
2021/06/19 09:59:34;;;;;;;4.43;4.03;;;31.70;66.60;;;;;;5074900;28;20108;-83
2021/06/19 10:02:04;;;;;;;7.72;4.28;;;31.90;65.60;;;;;;5074589;28;20036;-82
2021/06/19 10:04:31;;;;;;;8.07;4.30;;;32.10;67.10;;;;;;5074778;28;20056;-84
2021/06/19 10:06:58;;;;;;;9.52;4.82;;;32.10;65.30;;;;;;5074516;28;20444;-81
2021/06/19 10:09:24;;;;;;;7.88;4.93;;;32.00;63.30;;;;;;5074973;28;20016;-78
2021/06/19 10:11:54;;;;;;;5.20;4.45;;;32.00;66.90;;;;;;5075102;28;20048;-78
2021/06/19 10:14:24;;;;;;;4.57;4.03;;;31.80;64.10;;;;;;5073831;28;20075;-77
2021/06/19 10:16:52;;;;;;;8.68;4.40;;;31.50;65.00;;;;;;5073422;28;20078;-80
2021/06/19 10:19:21;;;;;;;5.43;4.38;;;31.40;64.40;;;;;;5073460;28;20025;-78
2021/06/19 10:21:51;;;;;;;5.10;4.60;;;31.60;64.10;;;;;;5073572;28;20071;-78
2021/06/19 10:24:18;;;;;;;5.07;4.57;;;31.50;63.80;;;;;;5074093;28;20154;-78
2021/06/19 10:26:45;;;;;;;4.53;4.13;;;31.60;65.10;;;;;;5073759;28;20033;-83
2021/06/19 10:29:11;;;;;;;5.40;4.38;;;31.80;65.30;;;;;;5074109;28;20032;-80
2021/06/19 10:31:43;;;;;;;7.53;4.50;;;32.00;66.40;;;;;;5073606;28;20033;-78
2021/06/19 10:34:20;;;;;;;5.45;3.95;;;32.20;65.30;;;;;;5073059;28;20024;-78
2021/06/19 10:36:47;;;;;;;4.72;4.32;;;32.20;65.00;;;;;;5073314;28;20053;-79
2021/06/19 10:39:15;;;;;;;5.63;4.40;;;32.10;66.20;;;;;;5073567;28;20029;-84
2021/06/19 10:41:51;;;;;;;6.13;4.35;;;32.30;66.00;;;;;;5073742;28;20040;-83
2021/06/19 10:44:47;;;;;;;5.63;4.30;;;32.20;63.20;;;;;;5073598;28;20134;-78
2021/06/19 10:47:12;;;;;;;4.88;4.43;;;32.40;63.90;;;;;;5073736;28;20032;-78
2021/06/19 10:49:41;;;;;;;6.28;4.80;;;32.20;62.20;;;;;;5073667;28;20025;-78
2021/06/19 10:52:27;;;;;;;4.65;3.95;;;32.10;65.20;;;;;;5073325;28;20098;-78
2021/06/19 10:55:08;;;;;;;4.82;4.10;;;32.40;64.10;;;;;;5073357;28;20490;-79
2021/06/19 10:58:01;;;;;;;7.45;4.45;;;32.70;63.10;;;;;;5073355;28;20028;-83
2021/06/19 11:00:42;;;;;;;5.68;4.57;;;32.80;64.80;;;;;;5071300;28;20380;-78
2021/06/19 11:03:07;;;;;;;8.05;4.40;;;32.80;64.00;;;;;;5073291;28;20509;-77
2021/06/19 11:05:42;;;;;;;4.60;4.18;;;33.00;64.20;;;;;;5073054;28;20025;-79
2021/06/19 11:08:09;;;;;;;5.18;4.30;;;33.20;61.60;;;;;;5072834;28;20451;-78
2021/06/19 11:10:44;;;;;;;5.95;4.40;;;33.20;62.30;;;;;;5072747;28;20020;-79
2021/06/19 11:13:32;;;;;;;;;;;33.10;60.00;;;;;;5073414;28;20111;-77
2021/06/19 11:16:02;;;;;;;5.25;4.07;;;33.20;61.40;;;;;;5072593;28;19910;-82
2021/06/19 11:18:54;;;;;;;9.70;4.38;;;33.30;60.20;;;;;;5072820;28;20028;-81
2021/06/19 11:21:32;;;;;;;7.35;4.18;;;32.90;60.60;;;;;;5072586;28;20532;-83
2021/06/19 11:24:00;;;;;;;4.30;3.90;;;32.90;61.00;;;;;;5070293;28;20086;-82
2021/06/19 11:27:01;;;;;;;5.15;4.22;;;33.00;64.10;;;;;;5072889;28;20086;-83
2021/06/19 11:29:37;;;;;;;7.53;3.90;;;33.00;60.80;;;;;;5072604;28;20119;-79
2021/06/19 11:32:25;;;;;;;4.57;4.15;;;33.20;61.40;;;;;;5072839;28;20395;-79
2021/06/19 11:34:58;;;;;;;5.63;3.90;;;33.30;60.50;;;;;;5073070;28;20494;-85
2021/06/19 11:37:45;;;;;;;6.80;4.10;;;33.50;60.60;;;;;;5072769;28;20135;-79
2021/06/19 11:40:11;;;;;;;5.80;4.13;;;33.50;58.90;;;;;;5072252;28;20375;-79
2021/06/19 11:42:43;;;;;;;6.25;3.83;;;33.50;60.10;;;;;;5073741;28;20060;-80
2021/06/19 11:45:14;;;;;;;7.15;4.28;;;33.40;59.00;;;;;;5072702;28;20483;-80
2021/06/19 11:47:39;;;;;;;4.20;3.80;;;33.50;58.90;;;;;;5072834;28;20067;-79
2021/06/19 11:50:09;;;;;;;5.13;4.50;;;33.40;59.20;;;;;;5072506;28;20047;-84
2021/06/19 11:52:35;;;;;;;4.55;4.15;;;33.20;57.50;;;;;;5073831;28;20036;-79
2021/06/19 11:55:00;;;;;;;4.75;4.10;;;33.10;58.70;;;;;;5072606;28;20025;-81
2021/06/19 11:57:30;;;;;;;10.82;3.75;;;32.70;60.10;;;;;;5072477;28;20384;-79
2021/06/19 12:00:11;;;;;;;7.82;4.35;;;32.70;59.80;;;;;;5073480;28;20059;-81
2021/06/19 12:02:37;;;;;;;5.55;4.28;;;32.70;59.80;;;;;;5072569;28;20051;-79
2021/06/19 12:05:15;;;;;;;4.63;4.03;;;32.70;59.80;;;;;;5072354;28;20082;-81
2021/06/19 12:07:41;;;;;;;6.72;4.25;;;32.70;58.70;;;;;;5073720;28;20111;-84
2021/06/19 12:10:29;;;;;;;7.95;4.60;;;32.80;59.70;;;;;;5072802;28;20048;-79
2021/06/19 12:12:59;;;;;;;4.93;4.25;;;32.70;60.10;;;;;;5073005;28;20028;-80
2021/06/19 12:15:25;;;;;;;7.38;4.57;;;32.70;59.10;;;;;;5072773;28;20020;-80
2021/06/19 12:17:51;;;;;;;5.93;4.60;;;32.80;59.80;;;;;;5072831;28;20396;-80
2021/06/19 12:20:24;;;;;;;6.13;4.30;;;32.70;60.40;;;;;;5072867;28;20036;-79
2021/06/19 12:22:51;;;;;;;5.32;3.80;;;33.00;58.60;;;;;;5072437;28;20056;-84
2021/06/19 12:25:27;;;;;;;4.55;4.15;;;32.80;57.80;;;;;;5071853;28;20024;-80
2021/06/19 12:27:53;;;;;;;5.35;4.15;;;33.00;58.20;;;;;;5072489;28;20035;-82
2021/06/19 12:30:19;;;;;;;6.35;4.60;;;33.10;57.00;;;;;;5072137;28;20083;-80
2021/06/19 12:32:45;;;;;;;5.32;4.47;;;33.00;59.20;;;;;;5072211;28;20058;-83
2021/06/19 12:35:13;;;;;;;5.07;4.63;;;33.10;59.90;;;;;;5072164;28;20115;-80
2021/06/19 12:37:54;;;;;;;6.45;4.20;;;33.10;61.20;;;;;;5072164;28;20097;-85
2021/06/19 12:40:24;;;;;;;9.23;4.60;;;33.10;61.30;;;;;;5072121;28;20025;-79
2021/06/19 12:42:53;;;;;;;7.82;4.25;;;33.00;59.90;;;;;;5074119;28;20041;-80
2021/06/19 12:45:21;;;;;;;6.55;4.35;;;33.20;58.60;;;;;;5075923;28;20046;-84
2021/06/19 12:47:49;;;;;;;5.88;4.60;;;33.20;59.30;;;;;;5077075;28;20029;-80
2021/06/19 12:50:20;;;;;;;4.95;4.40;;;33.30;59.40;;;;;;5075739;28;20098;-80